createdAt,value
2023-02-18T00:00:32.362Z,60.29
2023-02-18T00:02:58.850Z,60.19
2023-02-18T00:05:25.217Z,59.88
2023-02-18T00:07:51.495Z,60.12
2023-02-18T00:10:17.816Z,60.08
2023-02-18T00:12:44.153Z,59.91
2023-02-18T00:15:10.509Z,60.02
2023-02-18T00:17:36.813Z,59.88
2023-02-18T00:20:03.141Z,59.95
2023-02-18T00:22:29.574Z,59.87
2023-02-18T00:24:56.041Z,60.02
2023-02-18T00:27:22.584Z,59.97
2023-02-18T00:29:49.490Z,59.82
2023-02-18T00:32:15.939Z,60.18
2023-02-18T00:34:42.260Z,59.86
2023-02-18T00:37:08.966Z,59.99
2023-02-18T00:39:35.351Z,60.07
2023-02-18T00:42:01.674Z,60.25
2023-02-18T00:44:28.034Z,60.09
2023-02-18T00:46:54.599Z,60.11
2023-02-18T00:49:20.922Z,60.27
2023-02-18T00:51:47.330Z,59.95
2023-02-18T00:54:13.681Z,60.19
2023-02-18T00:56:40.124Z,59.95
2023-02-18T00:59:06.635Z,60.12
2023-02-18T01:01:32.987Z,59.75
2023-02-18T01:03:59.389Z,60.08
2023-02-18T01:06:25.776Z,59.89
2023-02-18T01:08:52.155Z,60.13
2023-02-18T01:11:18.505Z,60.08
2023-02-18T01:13:44.894Z,59.87
2023-02-18T01:16:11.580Z,60.11
2023-02-18T01:18:38.550Z,60.01
2023-02-18T01:21:04.898Z,59.96
2023-02-18T01:23:31.450Z,59.96
2023-02-18T01:25:57.805Z,59.97
2023-02-18T01:28:24.209Z,59.70
2023-02-18T01:30:52.200Z,59.79
2023-02-18T01:33:18.853Z,59.89
2023-02-18T01:35:45.284Z,59.68
2023-02-18T01:38:12.185Z,60.01
2023-02-18T01:40:38.531Z,59.86
2023-02-18T01:43:04.968Z,59.92
2023-02-18T01:45:31.456Z,59.61
2023-02-18T01:47:57.845Z,59.82
2023-02-18T01:50:24.187Z,59.77
2023-02-18T01:52:50.594Z,59.42
2023-02-18T01:55:16.951Z,59.87
2023-02-18T01:57:43.395Z,59.87
2023-02-18T02:00:09.957Z,59.67
2023-02-18T02:02:37.698Z,59.81
2023-02-18T02:05:05.519Z,59.41
2023-02-18T02:07:31.896Z,59.48
2023-02-18T02:09:58.642Z,59.76
2023-02-18T02:12:25.471Z,59.61
2023-02-18T02:14:51.810Z,59.52
2023-02-18T02:17:18.618Z,59.58
2023-02-18T02:19:45.597Z,59.33
2023-02-18T02:22:12.122Z,59.52
2023-02-18T02:24:39.044Z,59.46
2023-02-18T02:27:07.013Z,59.58
2023-02-18T02:29:33.989Z,59.61
2023-02-18T02:32:00.409Z,59.59
2023-02-18T02:34:26.810Z,59.50
2023-02-18T02:36:53.266Z,59.56
2023-02-18T02:39:19.545Z,59.56
2023-02-18T02:41:46.503Z,59.46
2023-02-18T02:44:12.868Z,59.40
2023-02-18T02:46:39.295Z,59.47
2023-02-18T02:49:05.725Z,59.30
2023-02-18T02:51:32.271Z,59.31
2023-02-18T02:53:59.030Z,59.19
2023-02-18T02:56:25.507Z,59.25
2023-02-18T02:58:51.901Z,59.58
2023-02-18T03:01:18.319Z,59.38
2023-02-18T03:03:45.352Z,59.48
2023-02-18T03:06:12.078Z,59.03
2023-02-18T03:08:38.529Z,59.32
2023-02-18T03:11:05.063Z,59.45
2023-02-18T03:13:31.716Z,59.38
2023-02-18T03:15:58.558Z,59.19
2023-02-18T03:18:24.917Z,59.27
2023-02-18T03:20:51.193Z,59.29
2023-02-18T03:23:18.006Z,59.09
2023-02-18T03:25:44.796Z,59.25
2023-02-18T03:28:11.401Z,59.08
2023-02-18T03:30:37.761Z,59.17
2023-02-18T03:33:04.142Z,59.22
2023-02-18T03:35:30.470Z,59.14
2023-02-18T03:37:56.806Z,59.20
2023-02-18T03:40:23.308Z,59.21
2023-02-18T03:42:49.671Z,59.12
2023-02-18T03:45:16.079Z,59.20
2023-02-18T03:47:42.510Z,59.30
2023-02-18T03:50:08.897Z,58.89
2023-02-18T03:52:35.459Z,59.23
2023-02-18T03:55:01.805Z,59.05
2023-02-18T03:57:28.176Z,59.06
2023-02-18T03:59:54.656Z,58.87
2023-02-18T04:02:21.005Z,59.06
2023-02-18T04:04:47.457Z,59.08
2023-02-18T04:07:13.808Z,59.15
2023-02-18T04:09:40.194Z,59.02
2023-02-18T04:12:07.040Z,59.00
2023-02-18T04:14:33.356Z,59.02
2023-02-18T04:17:00.273Z,58.88
2023-02-18T04:19:26.888Z,58.98
2023-02-18T04:21:53.387Z,59.02
2023-02-18T04:24:19.757Z,58.98
2023-02-18T04:26:46.144Z,58.65
2023-02-18T04:29:12.507Z,58.92
2023-02-18T04:31:39.477Z,58.97
2023-02-18T04:34:05.918Z,58.84
2023-02-18T04:36:32.254Z,58.92
2023-02-18T04:38:58.898Z,58.79
2023-02-18T04:41:25.240Z,58.85
2023-02-18T04:43:51.783Z,58.77
2023-02-18T04:46:18.202Z,58.95
2023-02-18T04:48:44.817Z,58.91
2023-02-18T04:51:11.208Z,58.78
2023-02-18T04:53:37.620Z,58.80
2023-02-18T04:56:03.992Z,58.77
2023-02-18T04:58:30.789Z,58.72
2023-02-18T05:00:57.263Z,58.73
2023-02-18T05:03:23.995Z,58.56
2023-02-18T05:05:50.769Z,58.73
2023-02-18T05:08:17.058Z,58.75
2023-02-18T05:10:44.069Z,58.67
2023-02-18T05:13:10.432Z,58.55
2023-02-18T05:15:37.062Z,58.59
2023-02-18T05:18:03.637Z,58.56
2023-02-18T05:20:30.066Z,58.74
2023-02-18T05:22:56.876Z,58.51
2023-02-18T05:25:23.605Z,58.75
2023-02-18T05:27:49.979Z,58.51
2023-02-18T05:30:16.503Z,58.74
2023-02-18T05:32:43.082Z,58.50
2023-02-18T05:35:09.423Z,58.57
2023-02-18T05:37:35.754Z,58.62
2023-02-18T05:40:02.105Z,58.49
2023-02-18T05:42:28.885Z,58.42
2023-02-18T05:44:55.751Z,58.58
2023-02-18T05:47:22.235Z,58.60
2023-02-18T05:49:48.648Z,58.44
2023-02-18T05:52:14.990Z,58.58
2023-02-18T05:54:41.306Z,58.33
2023-02-18T05:57:07.613Z,58.64
2023-02-18T05:59:34.213Z,58.54
2023-02-18T06:02:00.613Z,58.22
2023-02-18T06:04:26.961Z,58.42
2023-02-18T06:06:53.751Z,58.60
2023-02-18T06:09:20.100Z,58.38
2023-02-18T06:11:47.626Z,58.43
2023-02-18T06:14:14.050Z,58.30
2023-02-18T06:16:40.416Z,58.27
2023-02-18T06:19:06.974Z,58.26
2023-02-18T06:21:33.556Z,58.40
2023-02-18T06:24:00.121Z,58.22
2023-02-18T06:26:27.123Z,58.13
2023-02-18T06:28:53.505Z,58.17
2023-02-18T06:31:20.184Z,58.30
2023-02-18T06:33:46.686Z,58.44
2023-02-18T06:36:13.217Z,58.20
2023-02-18T06:38:39.642Z,58.49
2023-02-18T06:41:05.974Z,58.52
2023-02-18T06:43:32.493Z,58.11
2023-02-18T06:45:58.768Z,58.39
2023-02-18T06:48:25.149Z,58.29
2023-02-18T06:50:51.660Z,58.24
2023-02-18T06:53:18.094Z,58.30
2023-02-18T06:55:44.445Z,58.15
2023-02-18T06:58:10.887Z,58.32
2023-02-18T07:00:37.386Z,58.15
2023-02-18T07:03:03.962Z,58.42
2023-02-18T07:05:30.301Z,58.02
2023-02-18T07:07:56.624Z,58.11
2023-02-18T07:10:23.540Z,58.34
2023-02-18T07:12:49.894Z,58.09
2023-02-18T07:15:16.707Z,58.08
2023-02-18T07:17:43.134Z,58.28
2023-02-18T07:20:09.510Z,58.17
2023-02-18T07:22:35.900Z,58.03
2023-02-18T07:25:02.790Z,58.17
2023-02-18T07:27:29.554Z,57.99
2023-02-18T07:29:55.930Z,58.21
2023-02-18T07:32:22.962Z,58.29
2023-02-18T07:34:49.430Z,58.18
2023-02-18T07:37:16.169Z,58.14
2023-02-18T07:39:43.056Z,58.26
2023-02-18T07:42:09.465Z,57.89
2023-02-18T07:44:35.824Z,58.17
2023-02-18T07:47:02.199Z,58.13
2023-02-18T07:49:29.057Z,58.06
2023-02-18T07:51:55.438Z,58.06
2023-02-18T07:54:22.157Z,58.01
2023-02-18T07:56:48.537Z,58.00
2023-02-18T07:59:14.892Z,58.19
2023-02-18T08:01:42.593Z,58.13
2023-02-18T08:04:10.502Z,58.15
2023-02-18T08:06:36.848Z,58.19
2023-02-18T08:09:03.192Z,57.99
2023-02-18T08:11:29.558Z,58.04
2023-02-18T08:13:55.991Z,58.09
2023-02-18T08:16:22.657Z,58.08
2023-02-18T08:18:48.991Z,58.19
2023-02-18T08:21:15.393Z,58.06
2023-02-18T08:23:41.840Z,57.99
2023-02-18T08:26:08.470Z,57.91
2023-02-18T08:28:35.730Z,57.89
2023-02-18T08:31:02.098Z,58.18
2023-02-18T08:33:28.567Z,58.23
2023-02-18T08:35:55.074Z,58.01
2023-02-18T08:38:21.659Z,58.20
2023-02-18T08:40:48.034Z,58.25
2023-02-18T08:43:14.962Z,58.23
2023-02-18T08:45:41.690Z,58.30
2023-02-18T08:48:17.854Z,58.51
2023-02-18T08:50:46.525Z,58.09
2023-02-18T08:53:12.906Z,58.07
2023-02-18T08:55:39.237Z,58.17
2023-02-18T08:58:05.609Z,58.32
2023-02-18T09:00:31.962Z,58.12
2023-02-18T09:02:58.261Z,58.02
2023-02-18T09:05:25.614Z,58.27
2023-02-18T09:07:52.017Z,58.27
2023-02-18T09:10:18.594Z,58.24
2023-02-18T09:12:45.473Z,58.68
2023-02-18T09:15:11.859Z,58.55
2023-02-18T09:17:38.617Z,58.78
2023-02-18T09:20:05.806Z,59.05
2023-02-18T09:22:32.172Z,59.53
2023-02-18T09:24:58.500Z,59.97
2023-02-18T09:27:24.925Z,59.92
2023-02-18T09:29:51.515Z,59.86
2023-02-18T09:32:32.377Z,60.36
2023-02-18T09:35:00.250Z,60.53
2023-02-18T09:37:27.305Z,60.10
2023-02-18T09:39:53.679Z,60.33
2023-02-18T09:42:21.833Z,60.57
2023-02-18T09:44:54.958Z,60.68
2023-02-18T09:47:21.308Z,60.95
2023-02-18T09:49:48.051Z,61.13
2023-02-18T09:52:14.418Z,61.11
2023-02-18T09:54:40.876Z,61.40
2023-02-18T09:57:07.202Z,61.11
2023-02-18T09:59:33.596Z,61.31
2023-02-18T10:02:02.223Z,61.11
2023-02-18T10:04:29.121Z,61.38
2023-02-18T10:06:55.761Z,61.03
2023-02-18T10:09:22.319Z,61.35
2023-02-18T10:11:48.861Z,61.43
2023-02-18T10:14:15.362Z,61.33
2023-02-18T10:16:41.772Z,60.58
2023-02-18T10:19:08.253Z,60.75
2023-02-18T10:21:34.606Z,60.99
2023-02-18T10:24:01.173Z,61.26
2023-02-18T10:26:27.578Z,61.13
2023-02-18T10:28:53.968Z,60.69
2023-02-18T10:31:20.552Z,60.95
2023-02-18T10:33:47.207Z,60.76
2023-02-18T10:36:13.525Z,61.09
2023-02-18T10:38:40.109Z,60.80
2023-02-18T10:41:06.885Z,61.32
2023-02-18T10:43:33.542Z,60.90
2023-02-18T10:46:00.120Z,60.84
2023-02-18T10:48:26.831Z,60.97
2023-02-18T10:50:54.302Z,60.97
2023-02-18T10:53:20.638Z,60.90
2023-02-18T10:55:46.922Z,60.84
2023-02-18T10:58:13.208Z,60.96
2023-02-18T11:00:39.639Z,60.94
2023-02-18T11:03:08.052Z,60.98
2023-02-18T11:05:35.233Z,61.26
2023-02-18T11:08:02.117Z,61.09
2023-02-18T11:10:28.476Z,61.04
2023-02-18T11:12:54.797Z,60.99
2023-02-18T11:15:21.450Z,61.15
2023-02-18T11:17:48.110Z,61.40
2023-02-18T11:20:15.062Z,61.04
2023-02-18T11:22:41.698Z,61.47
2023-02-18T11:25:08.551Z,61.20
2023-02-18T11:27:35.304Z,60.93
2023-02-18T11:30:02.254Z,61.01
2023-02-18T11:32:29.044Z,60.96
2023-02-18T11:34:55.833Z,61.13
2023-02-18T11:37:22.538Z,61.00
2023-02-18T11:39:48.823Z,60.88
2023-02-18T11:42:15.563Z,61.37
2023-02-18T11:44:42.350Z,60.97
2023-02-18T11:47:08.999Z,61.27
2023-02-18T11:49:35.376Z,61.16
2023-02-18T11:52:01.808Z,61.08
2023-02-18T11:54:28.150Z,61.12
2023-02-18T11:56:55.114Z,61.58
2023-02-18T11:59:22.041Z,61.38
2023-02-18T12:01:48.765Z,61.41
2023-02-18T12:04:15.658Z,61.68
2023-02-18T12:06:41.966Z,61.66
2023-02-18T12:09:08.374Z,61.49
2023-02-18T12:11:34.972Z,61.41
2023-02-18T12:14:01.383Z,61.85
2023-02-18T12:16:27.873Z,61.76
2023-02-18T12:18:54.688Z,61.85
2023-02-18T12:21:21.428Z,61.76
2023-02-18T12:23:48.218Z,61.98
2023-02-18T12:26:14.561Z,62.07
2023-02-18T12:28:40.942Z,61.85
2023-02-18T12:31:08.495Z,62.04
2023-02-18T12:33:37.247Z,61.95
2023-02-18T12:36:03.774Z,62.22
2023-02-18T12:38:30.162Z,62.63
2023-02-18T12:40:56.819Z,62.16
2023-02-18T12:43:23.817Z,62.47
2023-02-18T12:45:50.662Z,62.30
2023-02-18T12:48:17.669Z,62.11
2023-02-18T12:50:44.422Z,62.47
2023-02-18T12:53:10.870Z,62.33
2023-02-18T12:55:37.206Z,62.74
2023-02-18T12:58:03.518Z,62.61
2023-02-18T13:00:31.112Z,63.00
2023-02-18T13:02:58.708Z,62.92
2023-02-18T13:05:25.177Z,63.17
2023-02-18T13:07:52.473Z,63.56
2023-02-18T13:10:18.938Z,63.39
2023-02-18T13:12:45.241Z,63.71
2023-02-18T13:15:12.405Z,63.88
2023-02-18T13:17:38.949Z,63.51
2023-02-18T13:20:05.298Z,63.30
2023-02-18T13:22:31.758Z,62.47
2023-02-18T13:24:58.087Z,62.65
2023-02-18T13:27:24.744Z,62.56
2023-02-18T13:29:51.277Z,62.81
2023-02-18T13:32:19.352Z,62.45
2023-02-18T13:34:45.867Z,62.34
2023-02-18T13:37:12.284Z,62.65
2023-02-18T13:39:39.159Z,62.32
2023-02-18T13:42:06.013Z,62.65
2023-02-18T13:44:32.306Z,62.28
2023-02-18T13:46:58.787Z,62.38
2023-02-18T13:49:25.353Z,62.53
2023-02-18T13:51:52.062Z,62.40
2023-02-18T13:54:18.742Z,62.58
2023-02-18T13:56:45.989Z,62.40
2023-02-18T13:59:12.770Z,62.86
2023-02-18T14:01:39.825Z,62.69
2023-02-18T14:04:07.395Z,62.82
2023-02-18T14:06:33.774Z,62.95
2023-02-18T14:09:00.127Z,63.02
2023-02-18T14:11:26.553Z,63.06
2023-02-18T14:13:53.068Z,63.00
2023-02-18T14:16:19.928Z,63.21
2023-02-18T14:18:46.264Z,62.81
2023-02-18T14:21:13.319Z,63.05
2023-02-18T14:23:40.342Z,63.40
2023-02-18T14:26:06.733Z,62.83
2023-02-18T14:28:33.142Z,63.11
2023-02-18T14:31:00.090Z,63.24
2023-02-18T14:33:26.933Z,63.35
2023-02-18T14:35:53.264Z,63.30
2023-02-18T14:38:19.770Z,62.62
2023-02-18T14:40:46.750Z,62.78
2023-02-18T14:43:13.076Z,62.57
2023-02-18T14:45:40.437Z,62.86
2023-02-18T14:48:06.829Z,62.41
2023-02-18T14:50:33.192Z,62.88
2023-02-18T14:53:00.058Z,62.72
2023-02-18T14:55:26.519Z,62.97
2023-02-18T14:57:53.381Z,62.48
2023-02-18T15:00:20.369Z,62.70
2023-02-18T15:02:46.726Z,62.71
2023-02-18T15:05:13.498Z,62.64
2023-02-18T15:07:39.785Z,62.75
2023-02-18T15:10:06.136Z,62.69
2023-02-18T15:12:32.493Z,62.82
2023-02-18T15:15:00.174Z,62.66
2023-02-18T15:17:26.547Z,62.90
2023-02-18T15:19:52.886Z,62.64
2023-02-18T15:22:19.889Z,62.71
2023-02-18T15:24:46.344Z,63.00
2023-02-18T15:27:12.691Z,62.81
2023-02-18T15:29:39.204Z,62.77
2023-02-18T15:32:06.260Z,62.79
2023-02-18T15:34:33.263Z,62.95
2023-02-18T15:36:59.561Z,62.94
2023-02-18T15:39:25.952Z,62.84
2023-02-18T15:41:52.848Z,62.89
2023-02-18T15:44:19.275Z,63.04
2023-02-18T15:46:46.828Z,63.08
2023-02-18T15:49:13.138Z,62.80
2023-02-18T15:51:39.480Z,63.11
2023-02-18T15:54:07.033Z,62.82
2023-02-18T15:56:33.831Z,62.94
2023-02-18T15:59:00.293Z,62.90
2023-02-18T16:01:27.411Z,62.90
2023-02-18T16:03:53.762Z,63.09
2023-02-18T16:06:20.166Z,62.97
2023-02-18T16:08:46.965Z,62.59
2023-02-18T16:11:13.307Z,62.67
2023-02-18T16:13:39.647Z,62.63
2023-02-18T16:16:06.097Z,62.28
2023-02-18T16:18:32.760Z,62.28
2023-02-18T16:20:59.094Z,61.88
2023-02-18T16:23:26.518Z,62.19
2023-02-18T16:25:52.894Z,62.21
2023-02-18T16:28:19.589Z,62.13
2023-02-18T16:30:46.073Z,62.14
2023-02-18T16:33:12.686Z,62.04
2023-02-18T16:35:49.579Z,62.08
2023-02-18T16:38:17.242Z,61.93
2023-02-18T16:40:43.743Z,62.25
2023-02-18T16:43:10.044Z,62.40
2023-02-18T16:45:36.783Z,61.96
2023-02-18T16:48:03.174Z,61.82
2023-02-18T16:50:29.527Z,62.08
2023-02-18T16:52:56.010Z,61.82
2023-02-18T16:55:22.449Z,61.73
2023-02-18T16:57:48.846Z,61.64
2023-02-18T17:00:16.015Z,61.82
2023-02-18T17:02:43.158Z,61.95
2023-02-18T17:05:20.663Z,61.73
2023-02-18T17:07:52.607Z,62.23
2023-02-18T17:10:19.174Z,61.98
2023-02-18T17:12:45.607Z,62.50
2023-02-18T17:15:12.516Z,62.37
2023-02-18T17:17:38.905Z,62.07
2023-02-18T17:20:05.177Z,62.22
2023-02-18T17:22:31.477Z,62.30
2023-02-18T17:24:58.176Z,62.39
2023-02-18T17:27:24.619Z,62.37
2023-02-18T17:29:50.983Z,62.28
2023-02-18T17:32:18.236Z,62.36
2023-02-18T17:34:45.087Z,62.40
2023-02-18T17:37:12.073Z,62.57
2023-02-18T17:39:38.582Z,62.54
2023-02-18T17:42:05.131Z,62.55
2023-02-18T17:44:31.692Z,62.62
2023-02-18T17:46:58.423Z,62.71
2023-02-18T17:49:24.789Z,62.02
2023-02-18T17:51:51.137Z,61.95
2023-02-18T17:54:18.327Z,61.88
2023-02-18T17:56:45.335Z,61.66
2023-02-18T17:59:12.297Z,61.79
2023-02-18T18:01:39.086Z,61.70
2023-02-18T18:04:05.771Z,61.47
2023-02-18T18:06:32.139Z,61.72
2023-02-18T18:08:58.528Z,61.64
2023-02-18T18:11:24.902Z,61.66
2023-02-18T18:13:51.232Z,61.67
2023-02-18T18:16:17.640Z,61.70
2023-02-18T18:18:44.063Z,61.64
2023-02-18T18:21:10.680Z,61.51
2023-02-18T18:23:37.184Z,61.54
2023-02-18T18:26:03.470Z,61.81
2023-02-18T18:28:31.849Z,61.94
2023-02-18T18:30:59.833Z,61.95
2023-02-18T18:33:26.147Z,61.76
2023-02-18T18:35:52.542Z,61.70
2023-02-18T18:38:18.829Z,61.45
2023-02-18T18:40:45.127Z,61.55
2023-02-18T18:43:11.640Z,61.39
2023-02-18T18:45:38.145Z,61.22
2023-02-18T18:48:05.175Z,61.42
2023-02-18T18:50:31.545Z,61.14
2023-02-18T18:52:57.834Z,61.23
2023-02-18T18:55:24.163Z,61.25
2023-02-18T18:57:51.103Z,60.88
2023-02-18T19:00:17.509Z,61.03
2023-02-18T19:02:43.870Z,61.22
2023-02-18T19:05:10.296Z,61.22
2023-02-18T19:07:36.674Z,60.93
2023-02-18T19:10:03.007Z,60.98
2023-02-18T19:12:29.744Z,61.18
2023-02-18T19:14:56.054Z,60.76
2023-02-18T19:17:22.612Z,60.87
2023-02-18T19:19:48.973Z,60.80
2023-02-18T19:22:15.411Z,60.78
2023-02-18T19:24:41.772Z,60.98
2023-02-18T19:27:08.153Z,60.76
2023-02-18T19:29:34.691Z,60.63
2023-02-18T19:32:01.312Z,61.23
2023-02-18T19:34:27.788Z,61.18
2023-02-18T19:36:54.160Z,61.04
2023-02-18T19:39:21.089Z,61.19
2023-02-18T19:41:47.468Z,60.90
2023-02-18T19:44:13.898Z,61.10
2023-02-18T19:46:40.460Z,61.05
2023-02-18T19:49:07.501Z,60.92
2023-02-18T19:51:33.855Z,61.04
2023-02-18T19:54:00.158Z,60.91
2023-02-18T19:56:27.524Z,60.89
2023-02-18T19:58:53.900Z,60.90
2023-02-18T20:01:20.263Z,60.75
2023-02-18T20:03:46.955Z,60.79
2023-02-18T20:06:13.515Z,61.13
2023-02-18T20:08:39.846Z,60.90
2023-02-18T20:11:06.362Z,60.94
2023-02-18T20:13:32.700Z,61.18
2023-02-18T20:15:59.111Z,60.95
2023-02-18T20:18:25.499Z,60.66
2023-02-18T20:20:51.946Z,60.99
2023-02-18T20:23:18.497Z,61.05
2023-02-18T20:25:44.865Z,61.06
2023-02-18T20:28:11.451Z,60.73
2023-02-18T20:30:37.794Z,61.13
2023-02-18T20:33:04.337Z,61.02
2023-02-18T20:35:30.689Z,61.00
2023-02-18T20:37:57.425Z,60.74
2023-02-18T20:40:23.798Z,60.99
2023-02-18T20:42:50.258Z,60.68
2023-02-18T20:45:16.696Z,60.72
2023-02-18T20:47:43.308Z,60.59
2023-02-18T20:50:09.716Z,60.69
2023-02-18T20:52:36.144Z,60.75
2023-02-18T20:55:02.549Z,60.68
2023-02-18T20:57:29.033Z,60.72
2023-02-18T20:59:55.511Z,61.15
2023-02-18T21:02:21.901Z,60.78
2023-02-18T21:04:48.201Z,60.85
2023-02-18T21:07:14.558Z,60.83
2023-02-18T21:09:41.015Z,60.73
2023-02-18T21:12:07.508Z,60.95
2023-02-18T21:14:33.995Z,60.89
2023-02-18T21:17:00.403Z,60.49
2023-02-18T21:19:26.662Z,60.64
2023-02-18T21:21:53.539Z,60.84
2023-02-18T21:24:19.934Z,60.45
2023-02-18T21:26:46.423Z,60.62
2023-02-18T21:29:12.733Z,60.59
2023-02-18T21:31:39.463Z,60.72
2023-02-18T21:34:06.317Z,60.43
2023-02-18T21:36:33.061Z,60.74
2023-02-18T21:38:59.482Z,60.76
2023-02-18T21:41:25.869Z,60.45
2023-02-18T21:43:52.201Z,60.79
2023-02-18T21:46:18.711Z,60.48
2023-02-18T21:48:45.062Z,60.71
2023-02-18T21:51:11.522Z,60.52
2023-02-18T21:53:38.172Z,60.57
2023-02-18T21:56:04.716Z,60.47
2023-02-18T21:58:31.045Z,60.71
2023-02-18T22:00:57.510Z,60.54
2023-02-18T22:03:23.957Z,60.52
2023-02-18T22:05:50.273Z,60.58
2023-02-18T22:08:17.072Z,60.26
2023-02-18T22:10:43.475Z,60.28
2023-02-18T22:13:10.019Z,60.55
2023-02-18T22:15:36.387Z,60.27
2023-02-18T22:18:02.718Z,60.53
2023-02-18T22:20:29.226Z,60.55
2023-02-18T22:22:55.656Z,60.33
2023-02-18T22:25:22.155Z,60.27
2023-02-18T22:27:48.819Z,60.52
2023-02-18T22:30:15.349Z,60.73
2023-02-18T22:32:41.940Z,60.65
2023-02-18T22:35:08.801Z,60.74
2023-02-18T22:37:35.084Z,60.63
2023-02-18T22:40:01.372Z,60.38
2023-02-18T22:42:27.990Z,60.57
2023-02-18T22:44:54.440Z,60.39
2023-02-18T22:47:21.222Z,60.27
2023-02-18T22:49:47.718Z,60.63
2023-02-18T22:52:14.255Z,60.35
2023-02-18T22:54:40.672Z,60.73
2023-02-18T22:57:07.438Z,60.38
2023-02-18T22:59:33.798Z,60.55
2023-02-18T23:02:00.157Z,60.43
2023-02-18T23:04:26.513Z,60.13
2023-02-18T23:06:52.949Z,60.25
2023-02-18T23:09:19.277Z,60.35
2023-02-18T23:11:45.569Z,60.12
2023-02-18T23:14:12.019Z,60.23
2023-02-18T23:16:38.389Z,60.52
2023-02-18T23:19:04.781Z,60.60
2023-02-18T23:21:31.159Z,60.63
2023-02-18T23:23:57.878Z,60.55
2023-02-18T23:26:24.228Z,60.41
2023-02-18T23:28:51.084Z,60.44
2023-02-18T23:31:17.732Z,60.46
2023-02-18T23:33:44.205Z,60.44
2023-02-18T23:36:10.880Z,60.52
2023-02-18T23:38:37.280Z,60.25
2023-02-18T23:41:03.702Z,60.74
2023-02-18T23:43:30.045Z,60.34
2023-02-18T23:45:57.068Z,60.68
2023-02-18T23:48:23.473Z,60.31
2023-02-18T23:50:50.016Z,60.52
2023-02-18T23:53:16.719Z,60.62
2023-02-18T23:55:42.974Z,60.58
2023-02-18T23:58:09.291Z,60.41
